sensor_id;sensor_type;location;lat;lon;timestamp;temperature;humidity
18085;DHT22;9169;44.492;11.372;2023-05-23T00:01:43;23.80;57.60
18085;DHT22;9169;44.492;11.372;2023-05-23T00:04:12;23.80;57.60
18085;DHT22;9169;44.492;11.372;2023-05-23T00:06:44;23.80;57.70
18085;DHT22;9169;44.492;11.372;2023-05-23T00:09:13;23.70;57.60
18085;DHT22;9169;44.492;11.372;2023-05-23T00:11:42;23.80;57.70
18085;DHT22;9169;44.492;11.372;2023-05-23T00:14:11;23.70;57.60
18085;DHT22;9169;44.492;11.372;2023-05-23T00:16:43;23.70;57.60
18085;DHT22;9169;44.492;11.372;2023-05-23T00:19:12;23.70;57.60
18085;DHT22;9169;44.492;11.372;2023-05-23T00:21:46;23.70;57.50
18085;DHT22;9169;44.492;11.372;2023-05-23T00:24:15;23.60;57.50
18085;DHT22;9169;44.492;11.372;2023-05-23T00:26:45;23.60;58.00
18085;DHT22;9169;44.492;11.372;2023-05-23T00:29:14;23.60;57.60
18085;DHT22;9169;44.492;11.372;2023-05-23T00:31:45;23.60;57.70
18085;DHT22;9169;44.492;11.372;2023-05-23T00:34:14;23.50;57.80
18085;DHT22;9169;44.492;11.372;2023-05-23T00:36:44;23.50;58.00
18085;DHT22;9169;44.492;11.372;2023-05-23T00:39:13;23.50;57.90
18085;DHT22;9169;44.492;11.372;2023-05-23T00:41:48;23.50;57.70
18085;DHT22;9169;44.492;11.372;2023-05-23T00:44:19;23.40;57.50
18085;DHT22;9169;44.492;11.372;2023-05-23T00:46:52;23.40;57.50
18085;DHT22;9169;44.492;11.372;2023-05-23T00:49:23;23.40;57.50
18085;DHT22;9169;44.492;11.372;2023-05-23T00:51:54;23.40;57.50
18085;DHT22;9169;44.492;11.372;2023-05-23T00:54:25;23.40;57.60
18085;DHT22;9169;44.492;11.372;2023-05-23T00:56:54;23.30;57.50
18085;DHT22;9169;44.492;11.372;2023-05-23T00:59:24;23.30;57.60
18085;DHT22;9169;44.492;11.372;2023-05-23T01:01:55;23.30;57.50
18085;DHT22;9169;44.492;11.372;2023-05-23T01:04:24;23.30;57.50
18085;DHT22;9169;44.492;11.372;2023-05-23T01:06:55;23.30;57.50
18085;DHT22;9169;44.492;11.372;2023-05-23T01:09:26;23.30;57.60
18085;DHT22;9169;44.492;11.372;2023-05-23T01:12:02;23.20;57.50
18085;DHT22;9169;44.492;11.372;2023-05-23T01:14:43;23.20;57.60
18085;DHT22;9169;44.492;11.372;2023-05-23T01:17:18;23.20;57.60
18085;DHT22;9169;44.492;11.372;2023-05-23T01:19:57;23.20;57.70
18085;DHT22;9169;44.492;11.372;2023-05-23T01:22:55;23.20;57.90
18085;DHT22;9169;44.492;11.372;2023-05-23T01:25:38;23.10;57.90
18085;DHT22;9169;44.492;11.372;2023-05-23T01:28:16;23.10;57.80
18085;DHT22;9169;44.492;11.372;2023-05-23T01:30:47;23.10;57.80
18085;DHT22;9169;44.492;11.372;2023-05-23T01:33:19;23.10;57.70
18085;DHT22;9169;44.492;11.372;2023-05-23T01:35:50;23.00;57.70
18085;DHT22;9169;44.492;11.372;2023-05-23T01:38:18;23.00;57.70
18085;DHT22;9169;44.492;11.372;2023-05-23T01:40:47;23.00;57.80
18085;DHT22;9169;44.492;11.372;2023-05-23T01:43:17;23.00;57.80
18085;DHT22;9169;44.492;11.372;2023-05-23T01:45:46;22.90;57.70
18085;DHT22;9169;44.492;11.372;2023-05-23T01:48:16;22.90;57.70
18085;DHT22;9169;44.492;11.372;2023-05-23T01:50:45;22.90;57.80
18085;DHT22;9169;44.492;11.372;2023-05-23T01:53:15;22.90;57.80
18085;DHT22;9169;44.492;11.372;2023-05-23T01:55:44;22.90;57.80
18085;DHT22;9169;44.492;11.372;2023-05-23T01:58:14;22.80;57.90
18085;DHT22;9169;44.492;11.372;2023-05-23T02:00:44;22.80;57.90
18085;DHT22;9169;44.492;11.372;2023-05-23T02:03:13;22.80;58.00
18085;DHT22;9169;44.492;11.372;2023-05-23T02:05:42;22.80;58.00
18085;DHT22;9169;44.492;11.372;2023-05-23T02:08:10;22.80;58.00
18085;DHT22;9169;44.492;11.372;2023-05-23T02:10:39;22.80;58.00
18085;DHT22;9169;44.492;11.372;2023-05-23T02:13:08;22.70;57.80
18085;DHT22;9169;44.492;11.372;2023-05-23T02:15:37;22.70;57.80
18085;DHT22;9169;44.492;11.372;2023-05-23T02:18:07;22.70;57.90
18085;DHT22;9169;44.492;11.372;2023-05-23T02:20:39;22.70;58.00
18085;DHT22;9169;44.492;11.372;2023-05-23T02:23:09;22.70;58.30
18085;DHT22;9169;44.492;11.372;2023-05-23T02:25:37;22.60;58.20
18085;DHT22;9169;44.492;11.372;2023-05-23T02:28:06;22.60;58.20
18085;DHT22;9169;44.492;11.372;2023-05-23T02:30:35;22.60;58.10
18085;DHT22;9169;44.492;11.372;2023-05-23T02:33:08;22.60;58.10
18085;DHT22;9169;44.492;11.372;2023-05-23T02:35:37;22.60;58.20
18085;DHT22;9169;44.492;11.372;2023-05-23T02:38:08;22.60;58.70
18085;DHT22;9169;44.492;11.372;2023-05-23T02:40:40;22.60;58.20
18085;DHT22;9169;44.492;11.372;2023-05-23T02:43:08;22.50;58.10
18085;DHT22;9169;44.492;11.372;2023-05-23T02:45:37;22.50;58.10
18085;DHT22;9169;44.492;11.372;2023-05-23T02:48:07;22.50;58.10
18085;DHT22;9169;44.492;11.372;2023-05-23T02:50:36;22.50;58.10
18085;DHT22;9169;44.492;11.372;2023-05-23T02:53:05;22.50;58.10
18085;DHT22;9169;44.492;11.372;2023-05-23T02:55:33;22.50;58.10
18085;DHT22;9169;44.492;11.372;2023-05-23T02:58:02;22.50;58.20
18085;DHT22;9169;44.492;11.372;2023-05-23T03:00:32;22.50;58.20
18085;DHT22;9169;44.492;11.372;2023-05-23T03:03:00;22.50;58.20
18085;DHT22;9169;44.492;11.372;2023-05-23T03:05:30;22.50;58.30
18085;DHT22;9169;44.492;11.372;2023-05-23T03:07:59;22.50;58.30
18085;DHT22;9169;44.492;11.372;2023-05-23T03:10:27;22.40;58.30
18085;DHT22;9169;44.492;11.372;2023-05-23T03:12:56;22.40;58.30
18085;DHT22;9169;44.492;11.372;2023-05-23T03:15:24;22.40;58.40
18085;DHT22;9169;44.492;11.372;2023-05-23T03:17:53;22.40;58.40
18085;DHT22;9169;44.492;11.372;2023-05-23T03:20:22;22.40;58.40
18085;DHT22;9169;44.492;11.372;2023-05-23T03:22:51;22.30;58.30
18085;DHT22;9169;44.492;11.372;2023-05-23T03:25:22;22.30;58.30
18085;DHT22;9169;44.492;11.372;2023-05-23T03:27:51;22.30;58.20
18085;DHT22;9169;44.492;11.372;2023-05-23T03:30:24;22.30;58.30
18085;DHT22;9169;44.492;11.372;2023-05-23T03:32:53;22.30;58.30
18085;DHT22;9169;44.492;11.372;2023-05-23T03:35:22;22.30;58.40
18085;DHT22;9169;44.492;11.372;2023-05-23T03:37:53;22.30;58.40
18085;DHT22;9169;44.492;11.372;2023-05-23T03:40:21;22.20;58.30
18085;DHT22;9169;44.492;11.372;2023-05-23T03:43:01;22.20;58.30
18085;DHT22;9169;44.492;11.372;2023-05-23T03:45:31;22.20;58.40
18085;DHT22;9169;44.492;11.372;2023-05-23T03:48:02;22.20;58.30
18085;DHT22;9169;44.492;11.372;2023-05-23T03:50:31;22.20;58.40
18085;DHT22;9169;44.492;11.372;2023-05-23T03:53:01;22.20;58.50
18085;DHT22;9169;44.492;11.372;2023-05-23T03:55:30;22.10;58.50
18085;DHT22;9169;44.492;11.372;2023-05-23T03:58:00;22.10;58.50
18085;DHT22;9169;44.492;11.372;2023-05-23T04:00:29;22.10;58.50
18085;DHT22;9169;44.492;11.372;2023-05-23T04:02:59;22.10;58.60
18085;DHT22;9169;44.492;11.372;2023-05-23T04:05:28;22.10;58.60
18085;DHT22;9169;44.492;11.372;2023-05-23T04:07:58;22.10;58.60
18085;DHT22;9169;44.492;11.372;2023-05-23T04:10:29;22.10;58.70
18085;DHT22;9169;44.492;11.372;2023-05-23T04:13:13;22.10;58.80
18085;DHT22;9169;44.492;11.372;2023-05-23T04:15:42;22.10;58.80
18085;DHT22;9169;44.492;11.372;2023-05-23T04:18:11;22.10;58.80
18085;DHT22;9169;44.492;11.372;2023-05-23T04:20:42;22.10;58.90
18085;DHT22;9169;44.492;11.372;2023-05-23T04:23:10;22.10;58.90
18085;DHT22;9169;44.492;11.372;2023-05-23T04:25:42;22.10;58.90
18085;DHT22;9169;44.492;11.372;2023-05-23T04:28:18;22.10;58.90
18085;DHT22;9169;44.492;11.372;2023-05-23T04:30:47;22.10;58.90
18085;DHT22;9169;44.492;11.372;2023-05-23T04:33:20;22.10;59.00
18085;DHT22;9169;44.492;11.372;2023-05-23T04:35:48;22.20;59.30
18085;DHT22;9169;44.492;11.372;2023-05-23T04:38:19;22.20;59.40
18085;DHT22;9169;44.492;11.372;2023-05-23T04:40:50;22.20;59.50
18085;DHT22;9169;44.492;11.372;2023-05-23T04:43:37;22.20;59.40
18085;DHT22;9169;44.492;11.372;2023-05-23T04:46:19;22.20;59.40
18085;DHT22;9169;44.492;11.372;2023-05-23T04:49:05;22.30;59.50
18085;DHT22;9169;44.492;11.372;2023-05-23T04:51:34;22.30;59.50
18085;DHT22;9169;44.492;11.372;2023-05-23T04:54:12;22.30;59.50
18085;DHT22;9169;44.492;11.372;2023-05-23T04:56:42;22.30;60.20
18085;DHT22;9169;44.492;11.372;2023-05-23T04:59:11;22.40;59.80
18085;DHT22;9169;44.492;11.372;2023-05-23T05:01:39;22.40;59.80
18085;DHT22;9169;44.492;11.372;2023-05-23T05:04:09;22.40;59.80
18085;DHT22;9169;44.492;11.372;2023-05-23T05:06:39;22.40;59.70
18085;DHT22;9169;44.492;11.372;2023-05-23T05:09:11;22.40;59.80
18085;DHT22;9169;44.492;11.372;2023-05-23T05:11:43;22.50;59.80
18085;DHT22;9169;44.492;11.372;2023-05-23T05:14:13;22.40;59.80
18085;DHT22;9169;44.492;11.372;2023-05-23T05:16:41;22.50;60.50
18085;DHT22;9169;44.492;11.372;2023-05-23T05:19:12;22.50;59.80
18085;DHT22;9169;44.492;11.372;2023-05-23T05:21:44;22.60;59.90
18085;DHT22;9169;44.492;11.372;2023-05-23T05:24:13;22.60;59.80
18085;DHT22;9169;44.492;11.372;2023-05-23T05:26:43;22.60;59.70
18085;DHT22;9169;44.492;11.372;2023-05-23T05:29:11;22.70;59.60
18085;DHT22;9169;44.492;11.372;2023-05-23T05:31:41;22.70;59.60
18085;DHT22;9169;44.492;11.372;2023-05-23T05:34:11;22.80;59.80
18085;DHT22;9169;44.492;11.372;2023-05-23T05:36:39;22.80;60.00
18085;DHT22;9169;44.492;11.372;2023-05-23T05:39:13;22.80;60.20
18085;DHT22;9169;44.492;11.372;2023-05-23T05:41:43;22.90;60.50
18085;DHT22;9169;44.492;11.372;2023-05-23T05:44:13;22.90;60.60
18085;DHT22;9169;44.492;11.372;2023-05-23T05:46:42;23.00;60.70
18085;DHT22;9169;44.492;11.372;2023-05-23T05:49:11;23.10;60.60
18085;DHT22;9169;44.492;11.372;2023-05-23T05:51:40;23.10;60.30
18085;DHT22;9169;44.492;11.372;2023-05-23T05:54:09;23.10;60.10
18085;DHT22;9169;44.492;11.372;2023-05-23T05:56:37;23.10;59.90
18085;DHT22;9169;44.492;11.372;2023-05-23T05:59:07;23.20;59.90
18085;DHT22;9169;44.492;11.372;2023-05-23T06:01:37;23.20;60.40
18085;DHT22;9169;44.492;11.372;2023-05-23T06:04:07;23.30;59.80
18085;DHT22;9169;44.492;11.372;2023-05-23T06:06:35;23.30;59.70
18085;DHT22;9169;44.492;11.372;2023-05-23T06:09:04;23.40;59.70
18085;DHT22;9169;44.492;11.372;2023-05-23T06:11:32;23.40;59.80
18085;DHT22;9169;44.492;11.372;2023-05-23T06:14:03;23.40;59.70
18085;DHT22;9169;44.492;11.372;2023-05-23T06:16:37;23.50;59.90
18085;DHT22;9169;44.492;11.372;2023-05-23T06:19:05;23.60;60.00
18085;DHT22;9169;44.492;11.372;2023-05-23T06:21:34;23.60;60.00
18085;DHT22;9169;44.492;11.372;2023-05-23T06:24:05;23.60;60.00
18085;DHT22;9169;44.492;11.372;2023-05-23T06:26:33;23.70;60.10
18085;DHT22;9169;44.492;11.372;2023-05-23T06:29:03;23.70;59.80
18085;DHT22;9169;44.492;11.372;2023-05-23T06:31:34;23.80;59.60
18085;DHT22;9169;44.492;11.372;2023-05-23T06:34:06;23.80;59.30
18085;DHT22;9169;44.492;11.372;2023-05-23T06:36:34;23.80;59.20
18085;DHT22;9169;44.492;11.372;2023-05-23T06:39:02;23.90;59.10
18085;DHT22;9169;44.492;11.372;2023-05-23T06:41:32;23.90;58.90
18085;DHT22;9169;44.492;11.372;2023-05-23T06:44:01;24.00;58.90
18085;DHT22;9169;44.492;11.372;2023-05-23T06:46:31;24.00;58.90
18085;DHT22;9169;44.492;11.372;2023-05-23T06:49:00;24.00;58.70
18085;DHT22;9169;44.492;11.372;2023-05-23T06:51:41;24.10;58.70
18085;DHT22;9169;44.492;11.372;2023-05-23T06:54:10;24.20;58.70
18085;DHT22;9169;44.492;11.372;2023-05-23T06:56:38;24.20;58.70
18085;DHT22;9169;44.492;11.372;2023-05-23T06:59:07;24.20;58.70
18085;DHT22;9169;44.492;11.372;2023-05-23T07:01:36;24.30;58.80
18085;DHT22;9169;44.492;11.372;2023-05-23T07:04:05;24.40;58.60
18085;DHT22;9169;44.492;11.372;2023-05-23T07:06:34;24.40;58.30
18085;DHT22;9169;44.492;11.372;2023-05-23T07:09:05;24.50;58.20
18085;DHT22;9169;44.492;11.372;2023-05-23T07:11:35;24.50;58.10
18085;DHT22;9169;44.492;11.372;2023-05-23T07:14:06;24.50;58.10
18085;DHT22;9169;44.492;11.372;2023-05-23T07:16:38;24.60;57.80
18085;DHT22;9169;44.492;11.372;2023-05-23T07:19:07;24.60;57.50
18085;DHT22;9169;44.492;11.372;2023-05-23T07:21:45;24.60;57.20
18085;DHT22;9169;44.492;11.372;2023-05-23T07:24:18;24.70;57.30
18085;DHT22;9169;44.492;11.372;2023-05-23T07:26:46;24.70;57.00
18085;DHT22;9169;44.492;11.372;2023-05-23T07:29:15;24.80;57.00
18085;DHT22;9169;44.492;11.372;2023-05-23T07:31:46;24.80;56.90
18085;DHT22;9169;44.492;11.372;2023-05-23T07:34:14;24.80;56.70
18085;DHT22;9169;44.492;11.372;2023-05-23T07:36:58;24.80;56.60
18085;DHT22;9169;44.492;11.372;2023-05-23T07:39:34;24.90;56.80
18085;DHT22;9169;44.492;11.372;2023-05-23T07:42:04;24.90;56.70
18085;DHT22;9169;44.492;11.372;2023-05-23T07:44:33;24.90;56.70
18085;DHT22;9169;44.492;11.372;2023-05-23T07:47:02;25.00;56.70
18085;DHT22;9169;44.492;11.372;2023-05-23T07:49:31;25.10;56.60
18085;DHT22;9169;44.492;11.372;2023-05-23T07:52:00;25.10;56.50
18085;DHT22;9169;44.492;11.372;2023-05-23T07:54:30;25.10;56.40
18085;DHT22;9169;44.492;11.372;2023-05-23T07:57:02;25.10;56.20
18085;DHT22;9169;44.492;11.372;2023-05-23T07:59:31;25.10;56.20
18085;DHT22;9169;44.492;11.372;2023-05-23T08:01:59;25.20;56.10
18085;DHT22;9169;44.492;11.372;2023-05-23T08:04:28;25.20;55.90
18085;DHT22;9169;44.492;11.372;2023-05-23T08:06:57;25.20;55.80
18085;DHT22;9169;44.492;11.372;2023-05-23T08:09:41;25.30;55.80
18085;DHT22;9169;44.492;11.372;2023-05-23T08:12:14;25.30;55.90
18085;DHT22;9169;44.492;11.372;2023-05-23T08:14:45;25.30;55.80
18085;DHT22;9169;44.492;11.372;2023-05-23T08:17:21;25.30;55.70
18085;DHT22;9169;44.492;11.372;2023-05-23T08:19:50;25.40;55.70
18085;DHT22;9169;44.492;11.372;2023-05-23T08:22:19;25.40;55.60
18085;DHT22;9169;44.492;11.372;2023-05-23T08:24:47;25.50;55.70
18085;DHT22;9169;44.492;11.372;2023-05-23T08:27:17;25.40;55.90
18085;DHT22;9169;44.492;11.372;2023-05-23T08:29:50;25.50;56.00
18085;DHT22;9169;44.492;11.372;2023-05-23T08:32:19;25.50;56.10
18085;DHT22;9169;44.492;11.372;2023-05-23T08:34:48;25.60;56.10
18085;DHT22;9169;44.492;11.372;2023-05-23T08:37:16;25.60;56.20
18085;DHT22;9169;44.492;11.372;2023-05-23T08:39:45;25.60;56.20
18085;DHT22;9169;44.492;11.372;2023-05-23T08:42:31;25.70;56.30
18085;DHT22;9169;44.492;11.372;2023-05-23T08:45:00;25.70;56.40
18085;DHT22;9169;44.492;11.372;2023-05-23T08:47:29;25.80;56.60
18085;DHT22;9169;44.492;11.372;2023-05-23T08:50:03;25.80;56.70
18085;DHT22;9169;44.492;11.372;2023-05-23T08:52:34;25.90;56.90
18085;DHT22;9169;44.492;11.372;2023-05-23T08:55:06;25.90;57.00
18085;DHT22;9169;44.492;11.372;2023-05-23T08:57:37;26.00;56.90
18085;DHT22;9169;44.492;11.372;2023-05-23T09:00:26;26.00;57.10
18085;DHT22;9169;44.492;11.372;2023-05-23T09:02:56;26.10;57.20
18085;DHT22;9169;44.492;11.372;2023-05-23T09:05:41;26.20;57.10
18085;DHT22;9169;44.492;11.372;2023-05-23T09:08:09;26.20;57.00
18085;DHT22;9169;44.492;11.372;2023-05-23T09:10:39;26.30;56.50
18085;DHT22;9169;44.492;11.372;2023-05-23T09:13:11;26.30;56.10
18085;DHT22;9169;44.492;11.372;2023-05-23T09:15:55;26.40;56.10
18085;DHT22;9169;44.492;11.372;2023-05-23T09:18:32;26.50;55.90
18085;DHT22;9169;44.492;11.372;2023-05-23T09:21:03;26.60;56.40
18085;DHT22;9169;44.492;11.372;2023-05-23T09:23:34;26.80;56.00
18085;DHT22;9169;44.492;11.372;2023-05-23T09:26:03;26.80;55.20
18085;DHT22;9169;44.492;11.372;2023-05-23T09:28:34;26.90;54.60
18085;DHT22;9169;44.492;11.372;2023-05-23T09:31:05;27.10;54.40
18085;DHT22;9169;44.492;11.372;2023-05-23T09:33:37;27.20;54.30
18085;DHT22;9169;44.492;11.372;2023-05-23T09:36:06;27.30;54.40
18085;DHT22;9169;44.492;11.372;2023-05-23T09:38:37;27.40;54.30
18085;DHT22;9169;44.492;11.372;2023-05-23T09:41:07;27.50;54.10
18085;DHT22;9169;44.492;11.372;2023-05-23T09:43:48;27.70;54.40
18085;DHT22;9169;44.492;11.372;2023-05-23T09:46:18;27.80;54.20
18085;DHT22;9169;44.492;11.372;2023-05-23T09:48:47;28.00;53.80
18085;DHT22;9169;44.492;11.372;2023-05-23T09:51:18;28.00;53.10
18085;DHT22;9169;44.492;11.372;2023-05-23T09:53:48;28.20;52.60
18085;DHT22;9169;44.492;11.372;2023-05-23T09:56:18;28.30;52.00
18085;DHT22;9169;44.492;11.372;2023-05-23T09:58:49;28.40;51.90
18085;DHT22;9169;44.492;11.372;2023-05-23T10:01:18;28.50;52.00
18085;DHT22;9169;44.492;11.372;2023-05-23T10:03:50;28.60;51.40
18085;DHT22;9169;44.492;11.372;2023-05-23T10:06:25;28.80;51.60
18085;DHT22;9169;44.492;11.372;2023-05-23T10:08:56;28.80;50.90
18085;DHT22;9169;44.492;11.372;2023-05-23T10:14:54;29.10;49.90
18085;DHT22;9169;44.492;11.372;2023-05-23T10:17:30;29.20;49.40
18085;DHT22;9169;44.492;11.372;2023-05-23T10:20:03;29.30;49.50
18085;DHT22;9169;44.492;11.372;2023-05-23T10:22:35;29.50;50.00
18085;DHT22;9169;44.492;11.372;2023-05-23T10:25:05;29.60;49.60
18085;DHT22;9169;44.492;11.372;2023-05-23T10:27:34;29.70;49.00
18085;DHT22;9169;44.492;11.372;2023-05-23T10:30:06;29.80;47.80
18085;DHT22;9169;44.492;11.372;2023-05-23T10:32:37;29.80;47.10
18085;DHT22;9169;44.492;11.372;2023-05-23T10:35:11;29.90;47.30
18085;DHT22;9169;44.492;11.372;2023-05-23T10:37:48;30.00;47.20
18085;DHT22;9169;44.492;11.372;2023-05-23T10:40:27;30.10;47.80
18085;DHT22;9169;44.492;11.372;2023-05-23T10:43:03;30.30;47.60
18085;DHT22;9169;44.492;11.372;2023-05-23T10:45:39;30.40;48.30
18085;DHT22;9169;44.492;11.372;2023-05-23T10:48:19;30.50;47.90
18085;DHT22;9169;44.492;11.372;2023-05-23T10:51:02;30.60;47.10
18085;DHT22;9169;44.492;11.372;2023-05-23T10:53:35;30.80;46.70
18085;DHT22;9169;44.492;11.372;2023-05-23T10:56:05;30.90;47.20
18085;DHT22;9169;44.492;11.372;2023-05-23T10:58:36;31.20;47.20
18085;DHT22;9169;44.492;11.372;2023-05-23T11:01:08;31.30;47.00
18085;DHT22;9169;44.492;11.372;2023-05-23T11:03:48;31.70;46.50
18085;DHT22;9169;44.492;11.372;2023-05-23T11:06:30;32.20;45.60
18085;DHT22;9169;44.492;11.372;2023-05-23T11:09:02;33.00;45.10
18085;DHT22;9169;44.492;11.372;2023-05-23T11:11:52;33.70;43.60
18085;DHT22;9169;44.492;11.372;2023-05-23T11:17:29;34.70;42.30
18085;DHT22;9169;44.492;11.372;2023-05-23T11:20:01;34.70;42.20
18085;DHT22;9169;44.492;11.372;2023-05-23T11:22:33;34.50;41.80
18085;DHT22;9169;44.492;11.372;2023-05-23T11:25:06;34.30;42.00
18085;DHT22;9169;44.492;11.372;2023-05-23T11:27:35;34.00;41.90
18085;DHT22;9169;44.492;11.372;2023-05-23T11:30:07;33.80;42.80
18085;DHT22;9169;44.492;11.372;2023-05-23T11:32:37;33.60;43.20
18085;DHT22;9169;44.492;11.372;2023-05-23T11:35:07;33.50;42.80
18085;DHT22;9169;44.492;11.372;2023-05-23T11:37:37;33.30;43.10
18085;DHT22;9169;44.492;11.372;2023-05-23T11:40:27;33.20;43.70
18085;DHT22;9169;44.492;11.372;2023-05-23T11:42:57;33.10;43.30
18085;DHT22;9169;44.492;11.372;2023-05-23T11:45:28;33.00;41.60
18085;DHT22;9169;44.492;11.372;2023-05-23T11:48:04;32.80;42.20
18085;DHT22;9169;44.492;11.372;2023-05-23T11:50:33;32.80;42.60
18085;DHT22;9169;44.492;11.372;2023-05-23T11:53:02;32.70;42.40
18085;DHT22;9169;44.492;11.372;2023-05-23T11:55:30;32.60;42.40
18085;DHT22;9169;44.492;11.372;2023-05-23T11:57:59;32.50;42.60
18085;DHT22;9169;44.492;11.372;2023-05-23T12:00:28;32.50;42.60
18085;DHT22;9169;44.492;11.372;2023-05-23T12:03:05;32.60;42.80
18085;DHT22;9169;44.492;11.372;2023-05-23T12:05:34;32.80;42.20
18085;DHT22;9169;44.492;11.372;2023-05-23T12:08:03;33.00;42.40
18085;DHT22;9169;44.492;11.372;2023-05-23T12:10:31;33.10;41.90
18085;DHT22;9169;44.492;11.372;2023-05-23T12:13:00;33.10;41.30
18085;DHT22;9169;44.492;11.372;2023-05-23T12:15:29;33.00;41.10
18085;DHT22;9169;44.492;11.372;2023-05-23T12:17:59;33.00;41.00
18085;DHT22;9169;44.492;11.372;2023-05-23T12:20:28;32.90;40.60
18085;DHT22;9169;44.492;11.372;2023-05-23T12:23:03;32.80;41.00
18085;DHT22;9169;44.492;11.372;2023-05-23T12:25:37;32.80;41.70
18085;DHT22;9169;44.492;11.372;2023-05-23T12:28:07;33.10;42.20
18085;DHT22;9169;44.492;11.372;2023-05-23T12:30:40;33.70;41.90
18085;DHT22;9169;44.492;11.372;2023-05-23T12:33:10;34.50;41.50
18085;DHT22;9169;44.492;11.372;2023-05-23T12:35:42;35.30;40.60
18085;DHT22;9169;44.492;11.372;2023-05-23T12:38:14;36.10;39.80
18085;DHT22;9169;44.492;11.372;2023-05-23T12:40:43;36.70;38.60
18085;DHT22;9169;44.492;11.372;2023-05-23T12:43:14;37.20;38.30
18085;DHT22;9169;44.492;11.372;2023-05-23T12:45:43;37.60;38.00
18085;DHT22;9169;44.492;11.372;2023-05-23T12:48:12;38.20;38.00
18085;DHT22;9169;44.492;11.372;2023-05-23T12:50:41;38.50;36.40
18085;DHT22;9169;44.492;11.372;2023-05-23T12:53:09;38.90;36.20
18085;DHT22;9169;44.492;11.372;2023-05-23T12:55:38;39.10;35.50
18085;DHT22;9169;44.492;11.372;2023-05-23T12:58:06;39.10;34.70
18085;DHT22;9169;44.492;11.372;2023-05-23T13:00:35;38.70;34.70
18085;DHT22;9169;44.492;11.372;2023-05-23T13:03:04;38.30;34.70
18085;DHT22;9169;44.492;11.372;2023-05-23T13:05:34;38.00;34.50
18085;DHT22;9169;44.492;11.372;2023-05-23T13:08:02;37.80;35.00
18085;DHT22;9169;44.492;11.372;2023-05-23T13:10:30;38.00;35.20
18085;DHT22;9169;44.492;11.372;2023-05-23T13:12:59;38.20;34.70
18085;DHT22;9169;44.492;11.372;2023-05-23T13:15:28;38.50;35.40
18085;DHT22;9169;44.492;11.372;2023-05-23T13:17:56;38.80;35.50
18085;DHT22;9169;44.492;11.372;2023-05-23T13:20:25;39.20;35.00
18085;DHT22;9169;44.492;11.372;2023-05-23T13:22:57;39.70;34.40
18085;DHT22;9169;44.492;11.372;2023-05-23T13:25:27;40.10;33.80
18085;DHT22;9169;44.492;11.372;2023-05-23T13:27:55;40.40;34.00
18085;DHT22;9169;44.492;11.372;2023-05-23T13:30:24;40.70;33.50
18085;DHT22;9169;44.492;11.372;2023-05-23T13:32:52;40.90;33.00
18085;DHT22;9169;44.492;11.372;2023-05-23T13:35:21;41.00;33.20
18085;DHT22;9169;44.492;11.372;2023-05-23T13:37:50;41.10;32.70
18085;DHT22;9169;44.492;11.372;2023-05-23T13:40:20;41.20;32.50
18085;DHT22;9169;44.492;11.372;2023-05-23T13:42:50;41.10;32.10
18085;DHT22;9169;44.492;11.372;2023-05-23T13:45:18;40.90;32.10
18085;DHT22;9169;44.492;11.372;2023-05-23T13:47:48;40.90;32.40
18085;DHT22;9169;44.492;11.372;2023-05-23T13:50:17;41.00;32.40
18085;DHT22;9169;44.492;11.372;2023-05-23T13:52:45;41.20;31.70
18085;DHT22;9169;44.492;11.372;2023-05-23T13:55:15;41.20;31.50
18085;DHT22;9169;44.492;11.372;2023-05-23T13:57:46;41.30;31.70
18085;DHT22;9169;44.492;11.372;2023-05-23T14:00:15;41.30;30.80
18085;DHT22;9169;44.492;11.372;2023-05-23T14:02:43;41.30;30.80
18085;DHT22;9169;44.492;11.372;2023-05-23T14:05:11;41.30;31.20
18085;DHT22;9169;44.492;11.372;2023-05-23T14:07:41;41.40;31.10
18085;DHT22;9169;44.492;11.372;2023-05-23T14:10:13;41.50;30.60
18085;DHT22;9169;44.492;11.372;2023-05-23T14:12:42;41.80;30.60
18085;DHT22;9169;44.492;11.372;2023-05-23T14:15:12;41.90;30.80
18085;DHT22;9169;44.492;11.372;2023-05-23T14:17:40;42.10;30.50
18085;DHT22;9169;44.492;11.372;2023-05-23T14:20:10;42.20;30.70
18085;DHT22;9169;44.492;11.372;2023-05-23T14:22:39;42.20;30.10
18085;DHT22;9169;44.492;11.372;2023-05-23T14:25:08;42.10;30.10
18085;DHT22;9169;44.492;11.372;2023-05-23T14:27:37;42.00;30.00
18085;DHT22;9169;44.492;11.372;2023-05-23T14:30:07;41.90;30.00
18085;DHT22;9169;44.492;11.372;2023-05-23T14:32:37;41.80;29.80
18085;DHT22;9169;44.492;11.372;2023-05-23T14:35:08;41.60;29.80
18085;DHT22;9169;44.492;11.372;2023-05-23T14:37:36;41.40;30.00
18085;DHT22;9169;44.492;11.372;2023-05-23T14:40:06;41.00;29.80
18085;DHT22;9169;44.492;11.372;2023-05-23T14:42:38;40.50;29.70
18085;DHT22;9169;44.492;11.372;2023-05-23T14:45:07;40.00;30.40
18085;DHT22;9169;44.492;11.372;2023-05-23T14:47:37;39.60;30.80
18085;DHT22;9169;44.492;11.372;2023-05-23T14:50:07;39.20;30.90
18085;DHT22;9169;44.492;11.372;2023-05-23T14:52:35;38.80;31.20
18085;DHT22;9169;44.492;11.372;2023-05-23T14:55:05;38.40;31.80
18085;DHT22;9169;44.492;11.372;2023-05-23T14:57:33;38.00;31.90
18085;DHT22;9169;44.492;11.372;2023-05-23T15:00:02;37.70;32.30
18085;DHT22;9169;44.492;11.372;2023-05-23T15:02:32;37.60;32.50
18085;DHT22;9169;44.492;11.372;2023-05-23T15:05:02;37.50;32.60
18085;DHT22;9169;44.492;11.372;2023-05-23T15:07:31;37.30;32.30
18085;DHT22;9169;44.492;11.372;2023-05-23T15:09:59;37.10;33.00
18085;DHT22;9169;44.492;11.372;2023-05-23T15:12:28;37.00;33.20
18085;DHT22;9169;44.492;11.372;2023-05-23T15:14:57;36.90;33.30
18085;DHT22;9169;44.492;11.372;2023-05-23T15:17:32;37.00;33.20
18085;DHT22;9169;44.492;11.372;2023-05-23T15:20:02;37.10;33.60
18085;DHT22;9169;44.492;11.372;2023-05-23T15:22:32;37.20;33.40
18085;DHT22;9169;44.492;11.372;2023-05-23T15:25:05;37.40;33.40
18085;DHT22;9169;44.492;11.372;2023-05-23T15:27:34;37.60;33.30
18085;DHT22;9169;44.492;11.372;2023-05-23T15:30:03;37.70;33.50
18085;DHT22;9169;44.492;11.372;2023-05-23T15:32:31;37.70;33.20
18085;DHT22;9169;44.492;11.372;2023-05-23T15:35:01;37.70;32.80
18085;DHT22;9169;44.492;11.372;2023-05-23T15:37:32;37.70;32.80
18085;DHT22;9169;44.492;11.372;2023-05-23T15:40:00;37.70;32.80
18085;DHT22;9169;44.492;11.372;2023-05-23T15:42:30;37.70;32.90
18085;DHT22;9169;44.492;11.372;2023-05-23T15:44:59;37.50;32.80
18085;DHT22;9169;44.492;11.372;2023-05-23T15:47:27;37.30;32.80
18085;DHT22;9169;44.492;11.372;2023-05-23T15:49:56;37.10;32.80
18085;DHT22;9169;44.492;11.372;2023-05-23T15:52:26;36.90;32.90
18085;DHT22;9169;44.492;11.372;2023-05-23T15:54:54;36.70;33.20
18085;DHT22;9169;44.492;11.372;2023-05-23T15:57:24;36.60;33.40
18085;DHT22;9169;44.492;11.372;2023-05-23T15:59:52;36.50;33.50